Randolph, Missouri
Current Conditions -  °F | °C
As of 12:54 PM on Tuesday 21 Oct 2014 (Local Time) from KMKC Reporting Station
Clear Clear  
Wind Chill: 71°   Ceiling: Unl
Heat Index: 71°   Visibility: 10mi
Dew Point: 44°   Wind: 3mph
Humidity: 38%   Direction: NA
Pressure: 30.12"   Gusts: NA
Location:  39.1628°N, 94.4478°W
Report Text: KMKC 211754Z VRB03KT 10SM CLR 22/07 A3012 RMK AO2 SLP196 T02170067 10217 20072 58007
Loading
Personal Weather Stations






























Interactive Weather Map
Tropical Storm Tracking
New forecast layout! Learn more

10-Day Weather Forecast

Advertisements
Track Severe Weather on mobile